sensor_id;sensor_type;location;lat;lon;timestamp;pressure;altitude;pressure_sealevel;temperature
49593;BMP280;35499;51.482;4.264;2023-05-20T00:01:58;102413.38;;;13.57
49593;BMP280;35499;51.482;4.264;2023-05-20T00:04:23;102408.22;;;13.55
49593;BMP280;35499;51.482;4.264;2023-05-20T00:06:48;102410.81;;;13.52
49593;BMP280;35499;51.482;4.264;2023-05-20T00:09:13;102412.53;;;13.53
49593;BMP280;35499;51.482;4.264;2023-05-20T00:11:39;102406.50;;;13.51
49593;BMP280;35499;51.482;4.264;2023-05-20T00:14:04;102408.22;;;13.51
49593;BMP280;35499;51.482;4.264;2023-05-20T00:16:30;102418.56;;;13.49
49593;BMP280;35499;51.482;4.264;2023-05-20T00:18:55;102409.09;;;13.48
49593;BMP280;35499;51.482;4.264;2023-05-20T00:21:21;102413.41;;;13.46
49593;BMP280;35499;51.482;4.264;2023-05-20T00:23:46;102412.56;;;13.44
49593;BMP280;35499;51.482;4.264;2023-05-20T00:26:11;102405.66;;;13.43
49593;BMP280;35499;51.482;4.264;2023-05-20T00:28:37;102416.84;;;13.41
49593;BMP280;35499;51.482;4.264;2023-05-20T00:31:02;102411.69;;;13.38
49593;BMP280;35499;51.482;4.264;2023-05-20T00:33:27;102406.53;;;13.37
49593;BMP280;35499;51.482;4.264;2023-05-20T00:35:52;102406.53;;;13.34
49593;BMP280;35499;51.482;4.264;2023-05-20T00:38:17;102398.78;;;13.31
49593;BMP280;35499;51.482;4.264;2023-05-20T00:40:43;102392.75;;;13.26
49593;BMP280;35499;51.482;4.264;2023-05-20T00:43:08;102398.78;;;13.22
49593;BMP280;35499;51.482;4.264;2023-05-20T00:45:33;102398.78;;;13.16
49593;BMP280;35499;51.482;4.264;2023-05-20T00:47:58;102403.09;;;13.13
49593;BMP280;35499;51.482;4.264;2023-05-20T00:50:25;102405.69;;;13.08
49593;BMP280;35499;51.482;4.264;2023-05-20T00:52:51;102402.25;;;13.04
49593;BMP280;35499;51.482;4.264;2023-05-20T00:55:16;102398.78;;;12.99
49593;BMP280;35499;51.482;4.264;2023-05-20T00:57:44;102389.31;;;12.96
49593;BMP280;35499;51.482;4.264;2023-05-20T01:00:10;102395.34;;;12.94
49593;BMP280;35499;51.482;4.264;2023-05-20T01:02:35;102388.47;;;12.91
49593;BMP280;35499;51.482;4.264;2023-05-20T01:05:00;102392.75;;;12.88
49593;BMP280;35499;51.482;4.264;2023-05-20T01:07:26;102395.34;;;12.84
49593;BMP280;35499;51.482;4.264;2023-05-20T01:09:51;102391.88;;;12.80
49593;BMP280;35499;51.482;4.264;2023-05-20T01:14:50;102388.44;;;12.72
49593;BMP280;35499;51.482;4.264;2023-05-20T01:17:20;102385.00;;;12.69
49593;BMP280;35499;51.482;4.264;2023-05-20T01:19:51;102389.28;;;12.67
49593;BMP280;35499;51.482;4.264;2023-05-20T01:22:17;102384.16;;;12.64
49593;BMP280;35499;51.482;4.264;2023-05-20T01:24:43;102391.84;;;12.60
49593;BMP280;35499;51.482;4.264;2023-05-20T01:27:09;102389.22;;;12.57
49593;BMP280;35499;51.482;4.264;2023-05-20T01:29:39;102387.53;;;12.54
49593;BMP280;35499;51.482;4.264;2023-05-20T01:32:08;102377.19;;;12.53
49593;BMP280;35499;51.482;4.264;2023-05-20T01:34:35;102381.47;;;12.51
49593;BMP280;35499;51.482;4.264;2023-05-20T01:37:01;102367.72;;;12.46
49593;BMP280;35499;51.482;4.264;2023-05-20T01:39:27;102378.91;;;12.44
49593;BMP280;35499;51.482;4.264;2023-05-20T01:41:53;102374.59;;;12.43
49593;BMP280;35499;51.482;4.264;2023-05-20T01:44:19;102374.59;;;12.41
49593;BMP280;35499;51.482;4.264;2023-05-20T01:46:48;102362.56;;;12.39
49593;BMP280;35499;51.482;4.264;2023-05-20T01:49:14;102370.28;;;12.36
49593;BMP280;35499;51.482;4.264;2023-05-20T01:51:39;102369.44;;;12.34
49593;BMP280;35499;51.482;4.264;2023-05-20T01:54:04;102365.97;;;12.31
49593;BMP280;35499;51.482;4.264;2023-05-20T01:56:29;102369.38;;;12.27
49593;BMP280;35499;51.482;4.264;2023-05-20T01:58:55;102370.25;;;12.24
49593;BMP280;35499;51.482;4.264;2023-05-20T02:01:20;102371.94;;;12.21
49593;BMP280;35499;51.482;4.264;2023-05-20T02:03:45;102368.53;;;12.19
49593;BMP280;35499;51.482;4.264;2023-05-20T02:06:10;102368.50;;;12.16
49593;BMP280;35499;51.482;4.264;2023-05-20T02:08:36;102366.78;;;12.14
49593;BMP280;35499;51.482;4.264;2023-05-20T02:11:01;102368.50;;;12.10
49593;BMP280;35499;51.482;4.264;2023-05-20T02:13:26;102365.91;;;12.09
49593;BMP280;35499;51.482;4.264;2023-05-20T02:15:51;102359.88;;;12.07
49593;BMP280;35499;51.482;4.264;2023-05-20T02:18:17;102359.00;;;12.03
49593;BMP280;35499;51.482;4.264;2023-05-20T02:20:42;102366.75;;;12.03
49593;BMP280;35499;51.482;4.264;2023-05-20T02:23:08;102364.16;;;12.02
49593;BMP280;35499;51.482;4.264;2023-05-20T02:25:33;102359.88;;;11.99
49593;BMP280;35499;51.482;4.264;2023-05-20T02:27:58;102353.84;;;11.98
49593;BMP280;35499;51.482;4.264;2023-05-20T02:30:24;102360.69;;;11.96
49593;BMP280;35499;51.482;4.264;2023-05-20T02:32:49;102357.25;;;11.94
49593;BMP280;35499;51.482;4.264;2023-05-20T02:35:14;102362.41;;;11.94
49593;BMP280;35499;51.482;4.264;2023-05-20T02:37:40;102358.09;;;11.93
49593;BMP280;35499;51.482;4.264;2023-05-20T02:40:05;102361.53;;;11.92
49593;BMP280;35499;51.482;4.264;2023-05-20T02:42:33;102366.69;;;11.90
49593;BMP280;35499;51.482;4.264;2023-05-20T02:44:58;102360.69;;;11.90
49593;BMP280;35499;51.482;4.264;2023-05-20T02:47:24;102363.25;;;11.88
49593;BMP280;35499;51.482;4.264;2023-05-20T02:49:49;102352.94;;;11.85
49593;BMP280;35499;51.482;4.264;2023-05-20T02:52:14;102356.38;;;11.84
49593;BMP280;35499;51.482;4.264;2023-05-20T02:54:40;102352.03;;;11.82
49593;BMP280;35499;51.482;4.264;2023-05-20T02:57:05;102352.03;;;11.79
49593;BMP280;35499;51.482;4.264;2023-05-20T02:59:31;102352.03;;;11.78
49593;BMP280;35499;51.482;4.264;2023-05-20T03:01:56;102353.72;;;11.77
49593;BMP280;35499;51.482;4.264;2023-05-20T03:04:21;102351.16;;;11.74
49593;BMP280;35499;51.482;4.264;2023-05-20T03:06:46;102350.28;;;11.72
49593;BMP280;35499;51.482;4.264;2023-05-20T03:09:11;102349.44;;;11.70
49593;BMP280;35499;51.482;4.264;2023-05-20T03:11:38;102346.84;;;11.69
49593;BMP280;35499;51.482;4.264;2023-05-20T03:14:03;102352.81;;;11.66
49593;BMP280;35499;51.482;4.264;2023-05-20T03:16:28;102359.66;;;11.66
49593;BMP280;35499;51.482;4.264;2023-05-20T03:18:53;102356.25;;;11.64
49593;BMP280;35499;51.482;4.264;2023-05-20T03:21:18;102353.66;;;11.63
49593;BMP280;35499;51.482;4.264;2023-05-20T03:23:44;102360.50;;;11.61
49593;BMP280;35499;51.482;4.264;2023-05-20T03:26:09;102352.78;;;11.59
49593;BMP280;35499;51.482;4.264;2023-05-20T03:28:35;102351.91;;;11.57
49593;BMP280;35499;51.482;4.264;2023-05-20T03:31:00;102350.19;;;11.55
49593;BMP280;35499;51.482;4.264;2023-05-20T03:33:26;102353.63;;;11.54
49593;BMP280;35499;51.482;4.264;2023-05-20T03:35:51;102354.47;;;11.50
49593;BMP280;35499;51.482;4.264;2023-05-20T03:38:17;102345.00;;;11.49
49593;BMP280;35499;51.482;4.264;2023-05-20T03:40:42;102356.16;;;11.45
49593;BMP280;35499;51.482;4.264;2023-05-20T03:43:07;102349.25;;;11.43
49593;BMP280;35499;51.482;4.264;2023-05-20T03:45:32;102353.53;;;11.42
49593;BMP280;35499;51.482;4.264;2023-05-20T03:47:58;102351.81;;;11.41
49593;BMP280;35499;51.482;4.264;2023-05-20T03:50:23;102356.94;;;11.41
49593;BMP280;35499;51.482;4.264;2023-05-20T03:52:48;102354.38;;;11.40
49593;BMP280;35499;51.482;4.264;2023-05-20T03:55:14;102356.09;;;11.39
49593;BMP280;35499;51.482;4.264;2023-05-20T03:57:39;102360.38;;;11.37
49593;BMP280;35499;51.482;4.264;2023-05-20T04:00:04;102356.94;;;11.37
49593;BMP280;35499;51.482;4.264;2023-05-20T04:02:35;102355.22;;;11.37
49593;BMP280;35499;51.482;4.264;2023-05-20T04:05:00;102353.50;;;11.36
49593;BMP280;35499;51.482;4.264;2023-05-20T04:07:26;102356.94;;;11.38
49593;BMP280;35499;51.482;4.264;2023-05-20T04:09:51;102362.13;;;11.40
49593;BMP280;35499;51.482;4.264;2023-05-20T04:12:16;102358.66;;;11.39
49593;BMP280;35499;51.482;4.264;2023-05-20T04:14:43;102357.81;;;11.42
49593;BMP280;35499;51.482;4.264;2023-05-20T04:17:08;102363.81;;;11.42
49593;BMP280;35499;51.482;4.264;2023-05-20T04:19:34;102360.41;;;11.43
49593;BMP280;35499;51.482;4.264;2023-05-20T04:22:00;102364.72;;;11.44
49593;BMP280;35499;51.482;4.264;2023-05-20T04:24:25;102364.72;;;11.45
49593;BMP280;35499;51.482;4.264;2023-05-20T04:26:51;102361.28;;;11.46
49593;BMP280;35499;51.482;4.264;2023-05-20T04:29:17;102363.00;;;11.47
49593;BMP280;35499;51.482;4.264;2023-05-20T04:31:43;102369.88;;;11.48
49593;BMP280;35499;51.482;4.264;2023-05-20T04:34:09;102365.59;;;11.49
49593;BMP280;35499;51.482;4.264;2023-05-20T04:36:34;102356.16;;;11.51
49593;BMP280;35499;51.482;4.264;2023-05-20T04:39:02;102368.19;;;11.53
49593;BMP280;35499;51.482;4.264;2023-05-20T04:41:27;102369.91;;;11.56
49593;BMP280;35499;51.482;4.264;2023-05-20T04:43:53;102351.06;;;11.57
49593;BMP280;35499;51.482;4.264;2023-05-20T04:46:18;102353.66;;;11.60
49593;BMP280;35499;51.482;4.264;2023-05-20T04:48:44;102348.50;;;11.63
49593;BMP280;35499;51.482;4.264;2023-05-20T04:51:09;102352.84;;;11.65
49593;BMP280;35499;51.482;4.264;2023-05-20T04:53:35;102352.84;;;11.69
49593;BMP280;35499;51.482;4.264;2023-05-20T04:56:00;102361.44;;;11.73
49593;BMP280;35499;51.482;4.264;2023-05-20T04:58:25;102353.72;;;11.77
49593;BMP280;35499;51.482;4.264;2023-05-20T05:00:53;102355.47;;;11.82
49593;BMP280;35499;51.482;4.264;2023-05-20T05:03:18;102355.50;;;11.88
49593;BMP280;35499;51.482;4.264;2023-05-20T05:05:43;102358.97;;;11.93
49593;BMP280;35499;51.482;4.264;2023-05-20T05:08:09;102355.53;;;11.97
49593;BMP280;35499;51.482;4.264;2023-05-20T05:10:35;102349.53;;;12.01
49593;BMP280;35499;51.482;4.264;2023-05-20T05:13:01;102352.16;;;12.05
49593;BMP280;35499;51.482;4.264;2023-05-20T05:15:26;102354.75;;;12.10
49593;BMP280;35499;51.482;4.264;2023-05-20T05:17:51;102346.19;;;12.14
49593;BMP280;35499;51.482;4.264;2023-05-20T05:20:17;102341.91;;;12.20
49593;BMP280;35499;51.482;4.264;2023-05-20T05:22:42;102340.19;;;12.31
49593;BMP280;35499;51.482;4.264;2023-05-20T05:25:08;102339.38;;;12.42
49593;BMP280;35499;51.482;4.264;2023-05-20T05:27:33;102332.53;;;12.57
49593;BMP280;35499;51.482;4.264;2023-05-20T05:30:00;102336.88;;;12.72
49593;BMP280;35499;51.482;4.264;2023-05-20T05:32:25;102330.03;;;12.89
49593;BMP280;35499;51.482;4.264;2023-05-20T05:34:50;102334.31;;;13.05
49593;BMP280;35499;51.482;4.264;2023-05-20T05:37:15;102332.56;;;13.21
49593;BMP280;35499;51.482;4.264;2023-05-20T05:39:40;102322.22;;;13.37
49593;BMP280;35499;51.482;4.264;2023-05-20T05:42:06;102329.06;;;13.57
49593;BMP280;35499;51.482;4.264;2023-05-20T05:44:31;102325.56;;;13.74
49593;BMP280;35499;51.482;4.264;2023-05-20T05:46:56;102326.41;;;13.86
49593;BMP280;35499;51.482;4.264;2023-05-20T05:49:21;102310.84;;;13.99
49593;BMP280;35499;51.482;4.264;2023-05-20T05:51:46;102319.41;;;14.14
49593;BMP280;35499;51.482;4.264;2023-05-20T05:54:12;102321.84;;;14.38
49593;BMP280;35499;51.482;4.264;2023-05-20T05:56:37;102317.31;;;14.68
49593;BMP280;35499;51.482;4.264;2023-05-20T05:59:03;102312.81;;;14.94
49593;BMP280;35499;51.482;4.264;2023-05-20T06:01:28;102307.28;;;15.29
49593;BMP280;35499;51.482;4.264;2023-05-20T06:03:53;102308.66;;;15.62
49593;BMP280;35499;51.482;4.264;2023-05-20T06:06:19;102307.38;;;15.98
49593;BMP280;35499;51.482;4.264;2023-05-20T06:08:44;102299.13;;;16.32
49593;BMP280;35499;51.482;4.264;2023-05-20T06:11:09;102299.53;;;16.59
49593;BMP280;35499;51.482;4.264;2023-05-20T06:13:35;102291.31;;;16.86
49593;BMP280;35499;51.482;4.264;2023-05-20T06:16:00;102289.19;;;17.12
49593;BMP280;35499;51.482;4.264;2023-05-20T06:18:25;102295.75;;;17.29
49593;BMP280;35499;51.482;4.264;2023-05-20T06:20:57;102286.88;;;17.41
49593;BMP280;35499;51.482;4.264;2023-05-20T06:23:22;102291.66;;;17.62
49593;BMP280;35499;51.482;4.264;2023-05-20T06:25:48;102301.75;;;17.76
49593;BMP280;35499;51.482;4.264;2023-05-20T06:28:13;102297.69;;;18.05
49593;BMP280;35499;51.482;4.264;2023-05-20T06:30:39;102292.91;;;18.25
49593;BMP280;35499;51.482;4.264;2023-05-20T06:33:04;102284.00;;;18.34
49593;BMP280;35499;51.482;4.264;2023-05-20T06:35:30;102283.63;;;18.50
49593;BMP280;35499;51.482;4.264;2023-05-20T06:37:55;102267.63;;;18.66
49593;BMP280;35499;51.482;4.264;2023-05-20T06:40:20;102268.91;;;18.85
49593;BMP280;35499;51.482;4.264;2023-05-20T06:42:46;102266.63;;;19.06
49593;BMP280;35499;51.482;4.264;2023-05-20T06:45:11;102263.50;;;19.23
49593;BMP280;35499;51.482;4.264;2023-05-20T06:47:37;102261.81;;;19.53
49593;BMP280;35499;51.482;4.264;2023-05-20T06:50:03;102257.13;;;19.66
49593;BMP280;35499;51.482;4.264;2023-05-20T06:52:28;102253.19;;;19.81
49593;BMP280;35499;51.482;4.264;2023-05-20T06:54:53;102258.03;;;20.21
49593;BMP280;35499;51.482;4.264;2023-05-20T06:57:18;102243.38;;;20.44
49593;BMP280;35499;51.482;4.264;2023-05-20T06:59:43;102254.13;;;20.62
49593;BMP280;35499;51.482;4.264;2023-05-20T07:02:09;102261.03;;;20.88
49593;BMP280;35499;51.482;4.264;2023-05-20T07:07:00;102248.34;;;21.51
49593;BMP280;35499;51.482;4.264;2023-05-20T07:11:50;102247.69;;;21.91
49593;BMP280;35499;51.482;4.264;2023-05-20T07:14:15;102250.41;;;21.88
49593;BMP280;35499;51.482;4.264;2023-05-20T07:16:40;102248.19;;;22.00
49593;BMP280;35499;51.482;4.264;2023-05-20T07:19:06;102235.16;;;22.21
49593;BMP280;35499;51.482;4.264;2023-05-20T07:21:31;102243.91;;;22.20
49593;BMP280;35499;51.482;4.264;2023-05-20T07:23:56;102238.25;;;22.51
49593;BMP280;35499;51.482;4.264;2023-05-20T07:26:21;102227.00;;;22.70
49593;BMP280;35499;51.482;4.264;2023-05-20T07:28:46;102222.84;;;22.65
49593;BMP280;35499;51.482;4.264;2023-05-20T07:31:12;102218.22;;;22.71
49593;BMP280;35499;51.482;4.264;2023-05-20T07:33:37;102220.19;;;22.66
49593;BMP280;35499;51.482;4.264;2023-05-20T07:36:03;102218.66;;;22.61
49593;BMP280;35499;51.482;4.264;2023-05-20T07:38:28;102211.25;;;22.70
49593;BMP280;35499;51.482;4.264;2023-05-20T07:40:53;102228.13;;;23.04
49593;BMP280;35499;51.482;4.264;2023-05-20T07:43:18;102212.94;;;23.31
49593;BMP280;35499;51.482;4.264;2023-05-20T07:45:44;102210.88;;;23.75
49593;BMP280;35499;51.482;4.264;2023-05-20T07:48:09;102202.81;;;23.97
49593;BMP280;35499;51.482;4.264;2023-05-20T07:50:35;102202.25;;;24.09
49593;BMP280;35499;51.482;4.264;2023-05-20T07:53:00;102197.22;;;24.39
49593;BMP280;35499;51.482;4.264;2023-05-20T07:55:25;102193.84;;;24.54
49593;BMP280;35499;51.482;4.264;2023-05-20T07:57:50;102201.88;;;24.51
49593;BMP280;35499;51.482;4.264;2023-05-20T08:00:16;102194.25;;;24.63
49593;BMP280;35499;51.482;4.264;2023-05-20T08:02:41;102199.88;;;24.56
49593;BMP280;35499;51.482;4.264;2023-05-20T08:05:06;102189.38;;;24.56
49593;BMP280;35499;51.482;4.264;2023-05-20T08:07:32;102189.25;;;24.75
49593;BMP280;35499;51.482;4.264;2023-05-20T08:09:57;102181.03;;;24.97
49593;BMP280;35499;51.482;4.264;2023-05-20T08:12:23;102191.00;;;24.91
49593;BMP280;35499;51.482;4.264;2023-05-20T08:14:48;102191.47;;;24.66
49593;BMP280;35499;51.482;4.264;2023-05-20T08:17:13;102189.31;;;24.74
49593;BMP280;35499;51.482;4.264;2023-05-20T08:19:38;102189.91;;;25.12
49593;BMP280;35499;51.482;4.264;2023-05-20T08:22:03;102180.22;;;25.45
49593;BMP280;35499;51.482;4.264;2023-05-20T08:24:30;102179.66;;;25.55
49593;BMP280;35499;51.482;4.264;2023-05-20T08:26:55;102180.41;;;25.57
49593;BMP280;35499;51.482;4.264;2023-05-20T08:29:21;102179.47;;;25.58
49593;BMP280;35499;51.482;4.264;2023-05-20T08:31:46;102170.41;;;25.64
49593;BMP280;35499;51.482;4.264;2023-05-20T08:34:11;102178.56;;;25.59
49593;BMP280;35499;51.482;4.264;2023-05-20T08:36:36;102162.16;;;25.54
49593;BMP280;35499;51.482;4.264;2023-05-20T08:39:01;102154.69;;;25.62
49593;BMP280;35499;51.482;4.264;2023-05-20T08:41:28;102173.69;;;25.52
49593;BMP280;35499;51.482;4.264;2023-05-20T08:43:53;102155.72;;;25.60
49593;BMP280;35499;51.482;4.264;2023-05-20T08:46:19;102149.34;;;25.64
49593;BMP280;35499;51.482;4.264;2023-05-20T08:48:46;102151.44;;;25.42
49593;BMP280;35499;51.482;4.264;2023-05-20T08:51:11;102156.19;;;25.51
49593;BMP280;35499;51.482;4.264;2023-05-20T08:53:38;102143.16;;;25.65
49593;BMP280;35499;51.482;4.264;2023-05-20T08:56:03;102151.84;;;25.97
49593;BMP280;35499;51.482;4.264;2023-05-20T08:58:29;102146.06;;;26.05
49593;BMP280;35499;51.482;4.264;2023-05-20T09:04:31;102143.63;;;26.31
49593;BMP280;35499;51.482;4.264;2023-05-20T09:06:57;102149.03;;;26.15
49593;BMP280;35499;51.482;4.264;2023-05-20T09:09:22;102148.94;;;26.01
49593;BMP280;35499;51.482;4.264;2023-05-20T09:11:47;102139.56;;;25.66
49593;BMP280;35499;51.482;4.264;2023-05-20T09:14:12;102151.09;;;25.48
49593;BMP280;35499;51.482;4.264;2023-05-20T09:16:38;102139.81;;;25.14
49593;BMP280;35499;51.482;4.264;2023-05-20T09:19:04;102142.94;;;25.37
49593;BMP280;35499;51.482;4.264;2023-05-20T09:21:30;102131.09;;;25.91
49593;BMP280;35499;51.482;4.264;2023-05-20T09:23:56;102125.47;;;26.27
49593;BMP280;35499;51.482;4.264;2023-05-20T09:26:25;102119.28;;;26.41
49593;BMP280;35499;51.482;4.264;2023-05-20T09:28:50;102117.41;;;26.58
49593;BMP280;35499;51.482;4.264;2023-05-20T09:31:15;102114.22;;;26.38
49593;BMP280;35499;51.482;4.264;2023-05-20T09:33:41;102111.47;;;26.55
49593;BMP280;35499;51.482;4.264;2023-05-20T09:36:06;102115.84;;;26.26
49593;BMP280;35499;51.482;4.264;2023-05-20T09:38:32;102116.53;;;26.29
49593;BMP280;35499;51.482;4.264;2023-05-20T09:41:09;102110.19;;;26.18
49593;BMP280;35499;51.482;4.264;2023-05-20T09:43:35;102114.34;;;26.22
49593;BMP280;35499;51.482;4.264;2023-05-20T09:46:01;102116.94;;;25.93
49593;BMP280;35499;51.482;4.264;2023-05-20T09:48:28;102114.97;;;25.97
49593;BMP280;35499;51.482;4.264;2023-05-20T09:50:54;102101.28;;;26.05
49593;BMP280;35499;51.482;4.264;2023-05-20T09:53:20;102105.56;;;26.21
49593;BMP280;35499;51.482;4.264;2023-05-20T09:55:47;102102.69;;;26.83
49593;BMP280;35499;51.482;4.264;2023-05-20T09:58:12;102094.94;;;27.09
49593;BMP280;35499;51.482;4.264;2023-05-20T10:00:38;102118.44;;;26.56
49593;BMP280;35499;51.482;4.264;2023-05-20T10:03:03;102108.25;;;26.06
49593;BMP280;35499;51.482;4.264;2023-05-20T10:05:33;102104.28;;;25.85
49593;BMP280;35499;51.482;4.264;2023-05-20T10:10:44;102100.25;;;26.52
49593;BMP280;35499;51.482;4.264;2023-05-20T10:16:14;102087.28;;;26.34
49593;BMP280;35499;51.482;4.264;2023-05-20T10:21:16;102082.75;;;26.51
49593;BMP280;35499;51.482;4.264;2023-05-20T10:23:42;102078.69;;;26.45
49593;BMP280;35499;51.482;4.264;2023-05-20T10:26:07;102066.91;;;26.79
49593;BMP280;35499;51.482;4.264;2023-05-20T10:28:33;102055.63;;;27.18
49593;BMP280;35499;51.482;4.264;2023-05-20T10:31:00;102063.44;;;27.33
49593;BMP280;35499;51.482;4.264;2023-05-20T10:33:25;102050.88;;;26.96
49593;BMP280;35499;51.482;4.264;2023-05-20T10:35:52;102056.44;;;26.20
49593;BMP280;35499;51.482;4.264;2023-05-20T10:38:17;102054.34;;;25.53
49593;BMP280;35499;51.482;4.264;2023-05-20T10:40:43;102055.38;;;25.35
49593;BMP280;35499;51.482;4.264;2023-05-20T10:43:15;102050.84;;;25.37
49593;BMP280;35499;51.482;4.264;2023-05-20T10:45:50;102043.38;;;25.60
49593;BMP280;35499;51.482;4.264;2023-05-20T10:48:30;102038.13;;;25.75
49593;BMP280;35499;51.482;4.264;2023-05-20T10:50:56;102034.75;;;26.02
49593;BMP280;35499;51.482;4.264;2023-05-20T10:53:22;102045.22;;;26.03
49593;BMP280;35499;51.482;4.264;2023-05-20T10:55:48;102038.59;;;25.97
49593;BMP280;35499;51.482;4.264;2023-05-20T10:58:17;102031.88;;;25.76
49593;BMP280;35499;51.482;4.264;2023-05-20T11:00:44;102030.06;;;26.07
49593;BMP280;35499;51.482;4.264;2023-05-20T11:03:09;102028.44;;;26.62
49593;BMP280;35499;51.482;4.264;2023-05-20T11:05:37;102028.66;;;26.59
49593;BMP280;35499;51.482;4.264;2023-05-20T11:08:03;102011.81;;;26.33
49593;BMP280;35499;51.482;4.264;2023-05-20T11:10:29;102014.25;;;26.36
49593;BMP280;35499;51.482;4.264;2023-05-20T11:12:57;102006.00;;;26.55
49593;BMP280;35499;51.482;4.264;2023-05-20T11:15:22;101995.00;;;26.76
49593;BMP280;35499;51.482;4.264;2023-05-20T11:17:55;101999.44;;;27.03
49593;BMP280;35499;51.482;4.264;2023-05-20T11:20:21;101991.09;;;26.69
49593;BMP280;35499;51.482;4.264;2023-05-20T11:22:48;102011.13;;;26.44
49593;BMP280;35499;51.482;4.264;2023-05-20T11:25:13;102002.25;;;26.45
49593;BMP280;35499;51.482;4.264;2023-05-20T11:27:38;102011.50;;;26.52
49593;BMP280;35499;51.482;4.264;2023-05-20T11:30:04;101990.50;;;26.22
49593;BMP280;35499;51.482;4.264;2023-05-20T11:32:29;102005.28;;;25.96
49593;BMP280;35499;51.482;4.264;2023-05-20T11:34:55;102003.97;;;25.89
49593;BMP280;35499;51.482;4.264;2023-05-20T11:37:20;102008.91;;;26.08
49593;BMP280;35499;51.482;4.264;2023-05-20T11:39:47;101997.19;;;26.14
49593;BMP280;35499;51.482;4.264;2023-05-20T11:42:13;101992.00;;;26.26
49593;BMP280;35499;51.482;4.264;2023-05-20T11:44:41;101991.81;;;26.44
49593;BMP280;35499;51.482;4.264;2023-05-20T11:47:08;101985.09;;;26.38
49593;BMP280;35499;51.482;4.264;2023-05-20T11:49:38;101991.44;;;26.77
49593;BMP280;35499;51.482;4.264;2023-05-20T11:52:03;101986.06;;;26.92
49593;BMP280;35499;51.482;4.264;2023-05-20T11:54:30;101988.03;;;27.16
49593;BMP280;35499;51.482;4.264;2023-05-20T11:56:59;101981.81;;;27.17
49593;BMP280;35499;51.482;4.264;2023-05-20T11:59:24;101980.59;;;27.22
49593;BMP280;35499;51.482;4.264;2023-05-20T12:01:49;101984.44;;;27.56
49593;BMP280;35499;51.482;4.264;2023-05-20T12:04:15;101982.94;;;27.52
49593;BMP280;35499;51.482;4.264;2023-05-20T12:06:41;101976.88;;;27.38
49593;BMP280;35499;51.482;4.264;2023-05-20T12:09:09;101981.91;;;27.15
49593;BMP280;35499;51.482;4.264;2023-05-20T12:11:35;101980.66;;;27.34
49593;BMP280;35499;51.482;4.264;2023-05-20T12:14:01;101968.50;;;27.32
49593;BMP280;35499;51.482;4.264;2023-05-20T12:16:27;101961.69;;;27.42
49593;BMP280;35499;51.482;4.264;2023-05-20T12:18:52;101972.53;;;27.37
49593;BMP280;35499;51.482;4.264;2023-05-20T12:21:17;101968.34;;;27.21
49593;BMP280;35499;51.482;4.264;2023-05-20T12:23:43;101961.34;;;27.20
49593;BMP280;35499;51.482;4.264;2023-05-20T12:26:08;101967.91;;;27.41
49593;BMP280;35499;51.482;4.264;2023-05-20T12:28:33;101966.81;;;27.57
49593;BMP280;35499;51.482;4.264;2023-05-20T12:30:58;101955.03;;;27.62
49593;BMP280;35499;51.482;4.264;2023-05-20T12:33:24;101946.44;;;27.84
49593;BMP280;35499;51.482;4.264;2023-05-20T12:35:49;101946.50;;;28.09
49593;BMP280;35499;51.482;4.264;2023-05-20T12:38:14;101958.28;;;27.91
49593;BMP280;35499;51.482;4.264;2023-05-20T12:40:39;101951.06;;;27.81
49593;BMP280;35499;51.482;4.264;2023-05-20T12:43:05;101949.53;;;27.65
49593;BMP280;35499;51.482;4.264;2023-05-20T12:45:30;101951.06;;;27.81
49593;BMP280;35499;51.482;4.264;2023-05-20T12:47:55;101946.56;;;27.95
49593;BMP280;35499;51.482;4.264;2023-05-20T12:50:21;101947.31;;;27.97
49593;BMP280;35499;51.482;4.264;2023-05-20T12:52:46;101948.78;;;28.01
49593;BMP280;35499;51.482;4.264;2023-05-20T12:55:12;101946.84;;;27.79
49593;BMP280;35499;51.482;4.264;2023-05-20T12:57:40;101944.75;;;27.58
49593;BMP280;35499;51.482;4.264;2023-05-20T13:00:07;101943.97;;;27.44
49593;BMP280;35499;51.482;4.264;2023-05-20T13:02:32;101945.91;;;27.28
49593;BMP280;35499;51.482;4.264;2023-05-20T13:04:58;101949.91;;;27.08
49593;BMP280;35499;51.482;4.264;2023-05-20T13:07:23;101948.50;;;26.89
49593;BMP280;35499;51.482;4.264;2023-05-20T13:09:50;101950.28;;;26.61
49593;BMP280;35499;51.482;4.264;2023-05-20T13:12:16;101938.81;;;26.62
49593;BMP280;35499;51.482;4.264;2023-05-20T13:14:41;101932.31;;;26.67
49593;BMP280;35499;51.482;4.264;2023-05-20T13:17:06;101929.38;;;26.72
49593;BMP280;35499;51.482;4.264;2023-05-20T13:19:31;101934.66;;;26.72
49593;BMP280;35499;51.482;4.264;2023-05-20T13:21:57;101926.69;;;26.59
49593;BMP280;35499;51.482;4.264;2023-05-20T13:24:22;101923.19;;;26.59
49593;BMP280;35499;51.482;4.264;2023-05-20T13:26:48;101932.03;;;26.58
49593;BMP280;35499;51.482;4.264;2023-05-20T13:29:13;101917.16;;;26.57
49593;BMP280;35499;51.482;4.264;2023-05-20T13:31:38;101919.41;;;26.63
49593;BMP280;35499;51.482;4.264;2023-05-20T13:34:04;101915.53;;;26.27
49593;BMP280;35499;51.482;4.264;2023-05-20T13:36:29;101921.28;;;25.91
49593;BMP280;35499;51.482;4.264;2023-05-20T13:38:54;101930.78;;;25.65
49593;BMP280;35499;51.482;4.264;2023-05-20T13:41:20;101925.84;;;25.15
49593;BMP280;35499;51.482;4.264;2023-05-20T13:43:45;101932.34;;;25.09
49593;BMP280;35499;51.482;4.264;2023-05-20T13:46:10;101923.88;;;25.19
49593;BMP280;35499;51.482;4.264;2023-05-20T13:48:36;101915.50;;;25.28
49593;BMP280;35499;51.482;4.264;2023-05-20T13:51:01;101902.22;;;25.44
49593;BMP280;35499;51.482;4.264;2023-05-20T13:53:26;101916.91;;;25.48
49593;BMP280;35499;51.482;4.264;2023-05-20T13:55:52;101907.00;;;25.23
49593;BMP280;35499;51.482;4.264;2023-05-20T13:58:17;101907.50;;;24.99
49593;BMP280;35499;51.482;4.264;2023-05-20T14:00:42;101902.00;;;24.88
49593;BMP280;35499;51.482;4.264;2023-05-20T14:03:07;101909.53;;;24.64
49593;BMP280;35499;51.482;4.264;2023-05-20T14:05:34;101915.38;;;24.05
49593;BMP280;35499;51.482;4.264;2023-05-20T14:07:59;101914.78;;;23.83